HomeShort term forecast

Short term forecast

Graphical weather forecast for the next 48 hours for Montreal:
Short term forecast
This weather forecast is automatically refreshed every 3 hours.

Hourly Experimental Forecast for the next 48 hours

Overall summary: Mostly cloudy throughout the day.

 Date & Hour   Temp   Feel   Baro   Hum   Speed & Bearing   Wind Gust   Precip.%   Precip.   Visibility   Cloud cover   Conditions 
 04/12/2021 - 16:00  -5.1°C  -9.4°C  1015.1 hPa  80%  9.9 km/h   15.1 km/h  9%  0.02 mm/h  12.9km  100%  Overcast 
 04/12/2021 - 17:00  -5.2°C  -9.0°C  1015.6 hPa  81%  8.4 km/h   12.2 km/h  6%  0.15 mm/h  12.6km  100%  Overcast 
 04/12/2021 - 18:00  -5.4°C  -9.1°C  1016.2 hPa  79%  8.0 km/h   10.1 km/h  4%  0.07 mm/h  11.2km  99%  Overcast 
 04/12/2021 - 19:00  -5.7°C  -8.4°C  1016.4 hPa  82%  5.8 km/h   7.2 km/h  4%  0.07 mm/h  12.7km  99%  Overcast 
 04/12/2021 - 20:00  -6.3°C  -8.7°C  1016.9 hPa  82%  5.1 km/h   5.7 km/h  3%  0.05 mm/h  12.1km  85%  Mostly Cloudy 
 04/12/2021 - 21:00  -6.4°C  -9.0°C  1017.7 hPa  79%  5.3 km/h   7.7 km/h  3%  0.09 mm/h  6.7km  78%  Mostly Cloudy 
 04/12/2021 - 22:00  -5.9°C  -8.5°C  1018.5 hPa  77%  5.5 km/h   9.7 km/h  4%  0.12 mm/h  6.0km  77%  Mostly Cloudy 
 04/12/2021 - 23:00  -5.8°C  -8.4°C  1019.0 hPa  77%  5.5 km/h   14.4 km/h  4%  0.09 mm/h  7.6km  70%  Mostly Cloudy 
 05/12/2021 - 00:00  -5.7°C  -9.1°C  1018.8 hPa  75%  7.2 km/h   22.5 km/h  2%  0.03 mm/h  15.1km  55%  Partly Cloudy 
 05/12/2021 - 01:00  -5.4°C  -9.4°C  1020.0 hPa  71%  8.9 km/h   26.8 km/h  2%  0.02 mm/h  11.1km  66%  Mostly Cloudy 
 05/12/2021 - 02:00  -5.2°C  -9.6°C  1021.0 hPa  71%  10.6 km/h   26.7 km/h  2%  0.01 mm/h  16.1km  67%  Mostly Cloudy 
 05/12/2021 - 03:00  -5.5°C  -9.8°C  1021.6 hPa  74%  10.1 km/h   27.2 km/h  0%  --  16.1km  57%  Partly Cloudy 
 05/12/2021 - 04:00  -5.3°C  -10.0°C  1023.3 hPa  73%  11.1 km/h   28.9 km/h  2%  0.01 mm/h  16.1km  31%  Clear 
 05/12/2021 - 05:00  -6.0°C  -10.6°C  1024.2 hPa  78%  10.4 km/h   25.8 km/h  0%  --  16.1km  40%  Partly Cloudy 
 05/12/2021 - 06:00  -6.4°C  -10.8°C  1025.4 hPa  80%  9.6 km/h   24.4 km/h  0%  --  16.1km  39%  Partly Cloudy 
 05/12/2021 - 07:00  -6.6°C  -10.8°C  1026.5 hPa  83%  8.9 km/h   22.0 km/h  0%  --  16.1km  60%  Mostly Cloudy 
 05/12/2021 - 08:00  -6.6°C  -10.8°C  1027.3 hPa  84%  8.8 km/h   20.9 km/h  0%  --  15.9km  47%  Partly Cloudy 
 05/12/2021 - 09:00  -6.2°C  -10.4°C  1028.3 hPa  83%  9.2 km/h   18.7 km/h  0%  --  16.1km  58%  Partly Cloudy 
 05/12/2021 - 10:00  -5.8°C  -10.1°C  1029.0 hPa  81%  9.6 km/h   18.3 km/h  0%  --  16.1km  64%  Mostly Cloudy 
 05/12/2021 - 11:00  -5.1°C  -9.2°C  1029.1 hPa  78%  9.6 km/h   17.4 km/h  0%  --  16.1km  86%  Mostly Cloudy 
 05/12/2021 - 12:00  -4.3°C  -8.5°C  1028.9 hPa  74%  9.9 km/h   18.2 km/h  0%  --  16.1km  88%  Overcast 
 05/12/2021 - 13:00  -3.1°C  -6.9°C  1028.2 hPa  69%  9.8 km/h   18.9 km/h  0%  --  16.1km  91%  Overcast 
 05/12/2021 - 14:00  -2.3°C  -5.7°C  1028.1 hPa  66%  8.9 km/h   18.2 km/h  0%  --  16.1km  81%  Mostly Cloudy 
 05/12/2021 - 15:00  -2.0°C  -4.7°C  1028.0 hPa  63%  7.1 km/h   16.6 km/h  0%  --  16.1km  89%  Overcast 
 05/12/2021 - 16:00  -2.2°C  -4.4°C  1027.7 hPa  63%  5.8 km/h   14.7 km/h  0%  --  16.1km  92%  Overcast 
 05/12/2021 - 17:00  -2.4°C  -4.9°C  1027.4 hPa  65%  6.2 km/h   14.5 km/h  0%  --  16.1km  86%  Mostly Cloudy 
 05/12/2021 - 18:00  -2.8°C  -6.4°C  1027.1 hPa  66%  9.2 km/h   17.5 km/h  0%  --  16.1km  91%  Overcast 
 05/12/2021 - 19:00  -3.2°C  -7.5°C  1027.0 hPa  68%  11.5 km/h   21.8 km/h  1%  0.01 mm/h  16.1km  97%  Overcast 
 05/12/2021 - 20:00  -3.2°C  -8.1°C  1026.1 hPa  68%  13.5 km/h   26.3 km/h  4%  0.04 mm/h  16.1km  100%  Overcast 
 05/12/2021 - 21:00  -3.0°C  -8.1°C  1025.1 hPa  69%  15.3 km/h   30.6 km/h  9%  0.14 mm/h  13.7km  100%  Overcast 
 05/12/2021 - 22:00  -2.8°C  -8.5°C  1023.5 hPa  73%  18.7 km/h   35.3 km/h  16%  0.27 mm/h  9.9km  100%  Overcast 
 05/12/2021 - 23:00  -2.3°C  -8.0°C  1021.7 hPa  73%  19.3 km/h   40.7 km/h  25%  0.43 mm/h  9.8km  100%  Snow 
 06/12/2021 - 00:00  -2.1°C  -7.8°C  1019.9 hPa  77%  19.8 km/h   40.4 km/h  35%  0.79 mm/h  10.9km  100%  Snow 
 06/12/2021 - 01:00  -1.5°C  -7.1°C  1017.8 hPa  81%  20.0 km/h   43.9 km/h  42%  1.26 mm/h  9.4km  100%  Snow 
 06/12/2021 - 02:00  -0.2°C  -5.6°C  1015.6 hPa  80%  20.9 km/h   46.9 km/h  39%  0.97 mm/h  16.1km  100%  Rain 
 06/12/2021 - 03:00  0.7°C  -4.4°C  1013.6 hPa  82%  20.2 km/h   44.4 km/h  44%  0.95 mm/h  8.6km  100%  Rain 
 06/12/2021 - 04:00  0.9°C  -4.0°C  1011.5 hPa  89%  19.6 km/h   42.6 km/h  61%  1.19 mm/h  6.5km  100%  Rain 
 06/12/2021 - 05:00  1.4°C  -3.1°C  1009.8 hPa  92%  17.6 km/h   38.6 km/h  69%  1.74 mm/h  9.0km  100%  Rain 
 06/12/2021 - 06:00  2.3°C  -2.3°C  1008.3 hPa  95%  19.7 km/h   42.6 km/h  73%  2.19 mm/h  11.1km  100%  Rain 
 06/12/2021 - 07:00  3.4°C  -1.1°C  1006.8 hPa  98%  21.9 km/h   48.8 km/h  84%  2.21 mm/h  15.5km  100%  Rain 
 06/12/2021 - 08:00  4.0°C  -0.5°C  1005.3 hPa  100%  22.3 km/h   49.0 km/h  87%  2.38 mm/h  15.4km  100%  Rain 
 06/12/2021 - 09:00  4.4°C  -0.1°C  1004.0 hPa  100%  23.4 km/h   48.8 km/h  85%  1.62 mm/h  15.8km  100%  Rain 
 06/12/2021 - 10:00  4.9°C  0.5°C  1002.4 hPa  100%  23.1 km/h   46.9 km/h  84%  0.85 mm/h  13.2km  100%  Light Rain 
 06/12/2021 - 11:00  5.4°C  1.3°C  1000.2 hPa  100%  22.8 km/h   47.6 km/h  66%  0.40 mm/h  13.0km  93%  Light Rain 
 06/12/2021 - 12:00  6.2°C  2.3°C  997.7 hPa  100%  22.4 km/h   46.5 km/h  66%  0.47 mm/h  16.1km  85%  Light Rain 
 06/12/2021 - 13:00  6.4°C  2.5°C  996.9 hPa  100%  23.6 km/h   49.8 km/h  78%  1.03 mm/h  16.1km  80%  Rain 
 06/12/2021 - 14:00  7.3°C  3.6°C  995.6 hPa  99%  23.0 km/h   51.6 km/h  81%  1.15 mm/h  14.8km  85%  Rain 
 06/12/2021 - 15:00  8.3°C  5.0°C  994.8 hPa  95%  21.6 km/h   54.0 km/h  86%  1.45 mm/h  10.8km  93%  Rain 

 

Past weather and reports

Past weatherFind in this section the past weather conditions, weather archive, graphics, reports and statistics.

Current conditions

Current weather condition for MontrealAll you need to know about the current weather conditions for Montreal. Weather data is updated every 10 minutes.

Weather forecast

Current Montreal weatherSince 2004, celinium.com website has provided accurate weather forecast for Montreal's island.